Pedra Branca, Brazil
Current Conditions -  °F | °C
As of 10:00 AM on Monday 20 Oct 2014 (Local Time) from SBJU Reporting Station
Clear Clear  
Wind Chill: 91°   Ceiling: Unl
Heat Index: 97°   Visibility: 6mi
Dew Point: 70°   Wind: 0mph
Humidity: 49%   Direction: NA
Pressure: 30"   Gusts: NA
Location:  5.45°S, 39.72°W
Report Text: SBJU 201300Z 00000KT CAVOK 33/21 Q1016
Loading
Personal Weather Stations






























Interactive Weather Map
Tropical Storm Tracking
New forecast layout! Learn more

10-Day Weather Forecast

Advertisements
Track Severe Weather on mobile